Al Hamla — V7MX9 — position and weather

sailwx.info

Track history (hours):
 
Tides and Currents Weather Stations Pressure Air Temp Water Temp Dewpoint Dewpoint Depression Visibility Wind Speed Wind Dir Waves Ship Positions

Al Hamla

Last reported at 2017-Jun-10 06:51 UTC. Time now 2017-Jun-26 20:52 UTC.
Position N 01°18' E 103°19'.
Warning: this ship's position is 16 days out of date.

Length 315 m; draft 9.9 m.

Type: Tanker. MMSI: 538002922.

Date/timePositionNaut miles runAvg speedWind from/ knotsBaromVisibWave heightAir tempDewpointWater temp
2017-Jun-10 06:51N 01°18' E 103°19'616.1
2017-Jun-10 06:30N 01°15' E 103°24'714.0
2017-Jun-10 06:00N 01°13' E 103°30'611.8
2017-Jun-10 05:30N 01°12' E 103°36'510.8
2017-Jun-10 05:00N 01°10' E 103°41'3 5.8
2017-Jun-10 04:30N 01°09' E 103°44'0 0.3
2017-Jun-10 03:59N 01°09' E 103°44'0 0.3
2017-Jun-10 03:29N 01°09' E 103°44'0 0.2
2017-Jun-10 02:56N 01°09' E 103°44'0 0.1
2017-Jun-10 02:27N 01°09' E 103°44'0 0.0
2017-Jun-10 01:57N 01°09' E 103°44'0 0.1
2017-Jun-10 01:30N 01°09' E 103°44'0 0.1
2017-Jun-10 00:55N 01°09' E 103°44'0 0.3
2017-Jun-10 00:28N 01°09' E 103°44'0 0.1
2017-Jun-09 23:58N 01°09' E 103°44'0 0.0
2017-Jun-09 23:28N 01°09' E 103°44'0 0.1
2017-Jun-09 22:50N 01°09' E 103°44'0 0.0
2017-Jun-09 22:26N 01°09' E 103°44'0 0.0
2017-Jun-09 21:59N 01°09' E 103°44'0 0.0
2017-Jun-09 21:24N 01°09' E 103°44'0 0.0
2017-Jun-09 20:54N 01°09' E 103°44'0 0.0
2017-Jun-09 20:24N 01°09' E 103°44'0 0.0
2017-Jun-09 20:00N 01°09' E 103°44'0 0.0
2017-Jun-09 19:28N 01°09' E 103°44'0 0.0
2017-Jun-09 18:55N 01°09' E 103°44'0 0.0
2017-Jun-09 18:27N 01°09' E 103°44'0 0.1
2017-Jun-09 17:57N 01°09' E 103°44'0 0.0
2017-Jun-09 17:27N 01°09' E 103°44'0 0.0
2017-Jun-09 16:57N 01°09' E 103°44'0 0.0
2017-Jun-09 16:25N 01°09' E 103°44'0 0.2
2017-Jun-09 15:58N 01°09' E 103°44'0 0.1
2017-Jun-09 15:30N 01°09' E 103°44'0 0.2
2017-Jun-09 14:55N 01°09' E 103°44'0 0.2
2017-Jun-09 14:25N 01°09' E 103°44'0 0.2
2017-Jun-09 13:26N 01°09' E 103°44'0 0.3
2017-Jun-09 12:59N 01°10' E 103°44'0 0.2
2017-Jun-09 12:26N 01°09' E 103°44'0 0.1
2017-Jun-09 11:56N 01°09' E 103°44'0 0.0
2017-Jun-09 11:30N 01°09' E 103°44'0 0.0
2017-Jun-09 10:57N 01°09' E 103°44'0 0.2
2017-Jun-09 10:30N 01°10' E 103°44'0 0.2
2017-Jun-09 09:58N 01°09' E 103°44'0 1.1
2017-Jun-09 09:30N 01°09' E 103°44'3 6.6
2017-Jun-09 09:00N 01°10' E 103°47'511.0
2017-Jun-09 08:31N 01°12' E 103°52'612.6
2017-Jun-09 08:00N 01°15' E 103°58'  
2017-Jun-02 08:44N 33°48' E 134°54'417.4
2017-Jun-02 08:30N 33°52' E 134°54'816.7
2017-Jun-02 08:00N 33°60' E 134°56'816.8
2017-Jun-02 07:30N 34°08' E 134°57'612.8
2017-Jun-02 07:00N 34°15' E 134°58'813.8
2017-Jun-02 06:25N 34°23' E 135°00'914.6
2017-Jun-02 05:49N 34°30' E 135°05'310.0
2017-Jun-02 05:30N 34°33' E 135°06'4 8.7
2017-Jun-02 05:00N 34°36' E 135°02'4 0.1
2017-May-31 23:20N 34°37' E 134°57'411.2
2017-May-31 23:00N 34°37' E 135°02'511.2
2017-May-31 22:31N 34°34' E 135°07'3 6.8
2017-May-31 22:01N 34°31' E 135°08'611.6
2017-May-31 21:31N 34°26' E 135°05'612.0
2017-May-31 20:59N 34°20' E 135°01'511.5
2017-May-31 20:30N 34°15' E 134°59'612.0
2017-May-31 20:00N 34°09' E 134°59'3 5.9
2017-May-31 19:30N 34°06' E 134°59'612.6
2017-May-31 19:00N 33°60' E 134°59'  
Track history (hours):
 
Tides and Currents Weather Stations Pressure Air Temp Water Temp Dewpoint Dewpoint Depression Visibility Wind Speed Wind Dir Waves Ship Positions

Al Hamla

Last reported at 2017-Jun-10 06:51 UTC. Time now 2017-Jun-26 20:52 UTC.
Position N 01°18' E 103°19'.
Warning: this ship's position is 16 days out of date.

Length 315 m; draft 9.9 m.

Type: Tanker. MMSI: 538002922.

Date/timePositionNaut miles runAvg speedWind from/ knotsBaromVisibWave heightAir tempDewpointWater temp
2017-Jun-10 06:51N 01°18' E 103°19'616.1
2017-Jun-10 06:30N 01°15' E 103°24'714.0
2017-Jun-10 06:00N 01°13' E 103°30'611.8
2017-Jun-10 05:30N 01°12' E 103°36'510.8
2017-Jun-10 05:00N 01°10' E 103°41'3 5.8
2017-Jun-10 04:30N 01°09' E 103°44'0 0.3
2017-Jun-10 03:59N 01°09' E 103°44'0 0.3
2017-Jun-10 03:29N 01°09' E 103°44'0 0.2
2017-Jun-10 02:56N 01°09' E 103°44'0 0.1
2017-Jun-10 02:27N 01°09' E 103°44'0 0.0
2017-Jun-10 01:57N 01°09' E 103°44'0 0.1
2017-Jun-10 01:30N 01°09' E 103°44'0 0.1
2017-Jun-10 00:55N 01°09' E 103°44'0 0.3
2017-Jun-10 00:28N 01°09' E 103°44'0 0.1
2017-Jun-09 23:58N 01°09' E 103°44'0 0.0
2017-Jun-09 23:28N 01°09' E 103°44'0 0.1
2017-Jun-09 22:50N 01°09' E 103°44'0 0.0
2017-Jun-09 22:26N 01°09' E 103°44'0 0.0
2017-Jun-09 21:59N 01°09' E 103°44'0 0.0
2017-Jun-09 21:24N 01°09' E 103°44'0 0.0
2017-Jun-09 20:54N 01°09' E 103°44'0 0.0
2017-Jun-09 20:24N 01°09' E 103°44'0 0.0
2017-Jun-09 20:00N 01°09' E 103°44'0 0.0
2017-Jun-09 19:28N 01°09' E 103°44'0 0.0
2017-Jun-09 18:55N 01°09' E 103°44'0 0.0
2017-Jun-09 18:27N 01°09' E 103°44'0 0.1
2017-Jun-09 17:57N 01°09' E 103°44'0 0.0
2017-Jun-09 17:27N 01°09' E 103°44'0 0.0
2017-Jun-09 16:57N 01°09' E 103°44'0 0.0
2017-Jun-09 16:25N 01°09' E 103°44'0 0.2
2017-Jun-09 15:58N 01°09' E 103°44'0 0.1
2017-Jun-09 15:30N 01°09' E 103°44'0 0.2
2017-Jun-09 14:55N 01°09' E 103°44'0 0.2
2017-Jun-09 14:25N 01°09' E 103°44'0 0.2
2017-Jun-09 13:26N 01°09' E 103°44'0 0.3
2017-Jun-09 12:59N 01°10' E 103°44'0 0.2
2017-Jun-09 12:26N 01°09' E 103°44'0 0.1
2017-Jun-09 11:56N 01°09' E 103°44'0 0.0
2017-Jun-09 11:30N 01°09' E 103°44'0 0.0
2017-Jun-09 10:57N 01°09' E 103°44'0 0.2
2017-Jun-09 10:30N 01°10' E 103°44'0 0.2
2017-Jun-09 09:58N 01°09' E 103°44'0 1.1
2017-Jun-09 09:30N 01°09' E 103°44'3 6.6
2017-Jun-09 09:00N 01°10' E 103°47'511.0
2017-Jun-09 08:31N 01°12' E 103°52'612.6
2017-Jun-09 08:00N 01°15' E 103°58'  
2017-Jun-02 08:44N 33°48' E 134°54'417.4
2017-Jun-02 08:30N 33°52' E 134°54'816.7
2017-Jun-02 08:00N 33°60' E 134°56'816.8
2017-Jun-02 07:30N 34°08' E 134°57'612.8
2017-Jun-02 07:00N 34°15' E 134°58'813.8
2017-Jun-02 06:25N 34°23' E 135°00'914.6
2017-Jun-02 05:49N 34°30' E 135°05'310.0
2017-Jun-02 05:30N 34°33' E 135°06'4 8.7
2017-Jun-02 05:00N 34°36' E 135°02'4 0.1
2017-May-31 23:20N 34°37' E 134°57'411.2
2017-May-31 23:00N 34°37' E 135°02'511.2
2017-May-31 22:31N 34°34' E 135°07'3 6.8
2017-May-31 22:01N 34°31' E 135°08'611.6
2017-May-31 21:31N 34°26' E 135°05'612.0
2017-May-31 20:59N 34°20' E 135°01'511.5
2017-May-31 20:30N 34°15' E 134°59'612.0
2017-May-31 20:00N 34°09' E 134°59'3 5.9
2017-May-31 19:30N 34°06' E 134°59'612.6
2017-May-31 19:00N 33°60' E 134°59'  

Dump ship's entire track history